createdAt,value
2018-04-12T05:39:51.087Z,15.6
2018-04-12T05:40:41.157Z,15.6
2018-04-12T05:41:31.439Z,15.6
2018-04-12T05:42:21.341Z,15.7
2018-04-12T05:43:10.451Z,15.7
2018-04-12T05:44:01.090Z,15.6
2018-04-12T05:44:51.106Z,15.6
2018-04-12T05:45:41.318Z,15.7
2018-04-12T05:46:32.797Z,15.6
2018-04-12T05:47:22.186Z,15.6
2018-04-12T05:48:11.923Z,15.7
2018-04-12T05:49:02.265Z,15.7
2018-04-12T05:49:52.097Z,15.7
2018-04-12T05:50:41.874Z,15.6
2018-04-12T05:51:32.796Z,15.6
2018-04-12T05:52:21.380Z,15.7
2018-04-12T05:53:11.180Z,15.7
2018-04-12T05:54:01.531Z,15.7
2018-04-12T05:54:52.766Z,15.6
2018-04-12T05:55:42.298Z,15.7
2018-04-12T05:56:32.262Z,15.7
2018-04-12T05:57:22.982Z,15.7
2018-04-12T05:58:12.728Z,15.6
2018-04-12T05:59:02.097Z,15.7
2018-04-12T05:59:52.842Z,15.6
2018-04-12T06:00:42.625Z,15.7
2018-04-12T06:01:32.699Z,15.7
2018-04-12T06:02:23.357Z,15.7
2018-04-12T06:03:13.184Z,15.7
2018-04-12T06:04:03.399Z,15.7
2018-04-12T06:04:52.627Z,15.7
2018-04-12T06:05:42.701Z,15.7
2018-04-12T06:06:33.319Z,15.6
2018-04-12T06:07:23.624Z,15.7
2018-04-12T06:08:12.948Z,15.7
2018-04-12T06:09:03.229Z,15.7
2018-04-12T06:09:53.829Z,15.6
2018-04-12T06:10:43.919Z,15.7
2018-04-12T06:11:33.704Z,15.6
2018-04-12T06:12:24.051Z,15.7
2018-04-12T06:13:13.848Z,15.7
2018-04-12T06:14:04.229Z,15.7
2018-04-12T06:14:54.196Z,15.7
2018-04-12T06:15:43.440Z,15.7
2018-04-12T06:16:33.763Z,15.7
2018-04-12T06:17:24.702Z,15.7
2018-04-12T06:18:14.477Z,15.7
2018-04-12T06:19:04.544Z,15.7
2018-04-12T06:19:53.852Z,15.7
2018-04-12T06:20:44.121Z,15.7
2018-04-12T06:21:34.893Z,15.7
2018-04-12T06:22:24.767Z,15.7
2018-04-12T06:23:14.520Z,15.7
2018-04-12T06:24:04.614Z,15.7
2018-04-12T06:24:54.657Z,15.7
2018-04-12T06:25:44.727Z,15.7
2018-04-12T06:26:35.090Z,15.7
2018-04-12T06:27:25.454Z,15.6
2018-04-12T06:28:14.972Z,15.7
2018-04-12T06:29:04.717Z,15.7
2018-04-12T06:29:54.494Z,15.7
2018-04-12T06:30:45.440Z,15.7
2018-04-12T06:31:35.492Z,15.7
2018-04-12T06:32:25.294Z,15.7
2018-04-12T06:33:14.213Z,15.7
2018-04-12T06:34:05.713Z,15.7
2018-04-12T06:34:55.800Z,15.7
2018-04-12T06:35:44.980Z,15.7
2018-04-12T06:36:35.579Z,15.7
2018-04-12T06:37:24.841Z,15.7
2018-04-12T06:38:15.567Z,15.7
2018-04-12T06:39:05.188Z,15.7
2018-04-12T06:39:56.402Z,15.7
2018-04-12T06:40:45.644Z,15.7
2018-04-12T06:41:36.529Z,15.7
2018-04-12T06:42:25.214Z,15.7
2018-04-12T06:43:14.993Z,15.7
2018-04-12T06:44:06.144Z,15.7
2018-04-12T06:44:55.989Z,15.7
2018-04-12T06:45:45.388Z,15.7
2018-04-12T06:46:36.590Z,15.7
2018-04-12T06:47:26.105Z,15.7
2018-04-12T06:48:16.225Z,15.7
2018-04-12T06:49:06.524Z,15.7
2018-04-12T06:49:56.885Z,15.7
2018-04-12T06:50:46.966Z,15.7
2018-04-12T06:51:36.712Z,15.7
2018-04-12T06:52:26.759Z,15.7
2018-04-12T06:53:15.961Z,15.7
2018-04-12T06:54:07.650Z,15.7
2018-04-12T06:54:56.372Z,15.7
2018-04-12T06:55:46.182Z,15.7
2018-04-12T06:56:36.539Z,15.7
2018-04-12T06:57:27.154Z,15.7
2018-04-12T06:58:17.748Z,15.7
2018-04-12T06:59:07.577Z,15.7
2018-04-12T06:59:57.321Z,15.7
2018-04-12T07:00:47.691Z,15.7
2018-04-12T07:01:36.885Z,15.7
2018-04-12T07:02:26.695Z,15.7
2018-04-12T07:03:17.580Z,15.7
2018-04-12T07:04:08.242Z,15.7
2018-04-12T07:04:57.422Z,15.7
2018-04-12T07:05:48.081Z,15.7
2018-04-12T07:06:38.122Z,15.7
2018-04-12T07:07:27.911Z,15.7
2018-04-12T07:08:18.222Z,15.7
2018-04-12T07:09:08.283Z,15.7
2018-04-12T07:09:58.094Z,15.7
2018-04-12T07:10:48.540Z,15.7
2018-04-12T07:11:38.035Z,15.7
2018-04-12T07:12:28.622Z,15.7
2018-04-12T07:13:17.269Z,15.7
2018-04-12T07:14:08.129Z,15.7
2018-04-12T07:14:58.536Z,15.7
2018-04-12T07:15:48.552Z,15.7
2018-04-12T07:16:38.863Z,15.7
2018-04-12T07:17:28.443Z,15.7
2018-04-12T07:18:18.340Z,15.7
2018-04-12T07:19:07.976Z,15.7
2018-04-12T07:19:58.854Z,15.7
2018-04-12T07:20:48.350Z,15.7
2018-04-12T07:21:37.863Z,15.7
2018-04-12T07:22:28.301Z,15.7
2018-04-12T07:23:18.585Z,15.7
2018-04-12T07:24:08.880Z,15.7
2018-04-12T07:24:57.686Z,15.8
2018-04-12T07:25:48.997Z,15.7
2018-04-12T07:26:39.627Z,15.7
2018-04-12T07:27:28.555Z,15.8
2018-04-12T07:28:19.490Z,15.7
2018-04-12T07:29:09.269Z,15.7
2018-04-12T07:29:59.907Z,15.7
2018-04-12T07:30:49.657Z,15.7
2018-04-12T07:31:40.270Z,15.8
2018-04-12T07:32:29.817Z,15.7
2018-04-12T07:33:20.154Z,15.8
2018-04-12T07:34:10.202Z,15.7
2018-04-12T07:34:59.730Z,15.7
2018-04-12T07:35:50.632Z,15.7
2018-04-12T07:36:40.420Z,15.8
2018-04-12T07:37:29.173Z,15.7
2018-04-12T07:38:19.709Z,15.7
2018-04-12T07:39:10.089Z,15.8
2018-04-12T07:40:00.941Z,15.7
2018-04-12T07:40:50.166Z,15.7
2018-04-12T07:41:40.581Z,15.8
2018-04-12T07:42:30.611Z,15.7
2018-04-12T07:43:20.694Z,15.7
2018-04-12T07:44:10.465Z,15.7
2018-04-12T07:45:01.329Z,15.7
2018-04-12T07:45:50.309Z,15.8
2018-04-12T07:46:40.937Z,15.7
2018-04-12T07:47:30.402Z,15.7
2018-04-12T07:48:21.008Z,15.7
2018-04-12T07:49:11.685Z,15.8
2018-04-12T07:50:01.177Z,15.7
2018-04-12T07:50:49.327Z,15.8
2018-04-12T07:51:40.255Z,15.8
2018-04-12T07:52:31.665Z,15.7
2018-04-12T07:53:21.164Z,15.8
2018-04-12T07:54:10.954Z,15.8
2018-04-12T07:55:00.547Z,15.8
2018-04-12T07:55:51.890Z,15.8
2018-04-12T07:56:41.968Z,15.8
2018-04-12T07:57:31.985Z,15.7
2018-04-12T07:58:22.161Z,15.8
2018-04-12T07:59:11.309Z,15.8
2018-04-12T08:00:01.693Z,15.8
2018-04-12T08:00:52.271Z,15.8
2018-04-12T08:01:42.089Z,15.8
2018-04-12T08:02:32.444Z,15.8
2018-04-12T08:03:21.925Z,15.8
2018-04-12T08:04:11.145Z,15.8
2018-04-12T08:05:02.352Z,15.8
2018-04-12T08:05:52.732Z,15.8
2018-04-12T08:06:42.170Z,15.8
2018-04-12T08:07:32.513Z,15.8
2018-04-12T08:08:22.595Z,15.8
2018-04-12T08:09:12.500Z,15.8
2018-04-12T08:10:02.702Z,15.8
2018-04-12T08:10:52.773Z,15.8
2018-04-12T08:11:43.153Z,15.8
2018-04-12T08:12:32.960Z,15.8
2018-04-12T08:13:22.700Z,15.8
2018-04-12T08:14:13.562Z,15.8
2018-04-12T08:15:03.354Z,15.8
2018-04-12T08:15:53.398Z,15.8
2018-04-12T08:16:43.202Z,15.8
2018-04-12T08:17:33.819Z,15.8
2018-04-12T08:18:23.559Z,15.8
2018-04-12T08:19:13.094Z,15.8
2018-04-12T08:20:03.507Z,15.8
2018-04-12T08:20:53.568Z,15.8
2018-04-12T08:21:42.571Z,15.8
2018-04-12T08:22:33.129Z,15.8
2018-04-12T08:23:24.049Z,15.8
2018-04-12T08:24:13.487Z,15.8
2018-04-12T08:25:04.119Z,15.8
2018-04-12T08:25:53.934Z,15.8
2018-04-12T08:26:43.816Z,15.8
2018-04-12T08:27:34.153Z,15.8
2018-04-12T08:28:23.344Z,15.8
2018-04-12T08:29:14.176Z,15.8
2018-04-12T08:30:04.226Z,15.8
2018-04-12T08:30:54.584Z,15.8
2018-04-12T08:31:44.631Z,15.8
2018-04-12T08:32:34.162Z,15.8
2018-04-12T08:33:24.536Z,15.8
2018-04-12T08:34:14.273Z,15.8
2018-04-12T08:35:04.319Z,15.8
2018-04-12T08:35:54.966Z,15.8
2018-04-12T08:36:44.774Z,15.8
2018-04-12T08:37:34.857Z,15.8
2018-04-12T08:38:24.051Z,15.8
2018-04-12T08:39:15.236Z,15.8
2018-04-12T08:40:05.326Z,15.8
2018-04-12T08:40:54.783Z,15.8
2018-04-12T08:41:44.646Z,15.8
2018-04-12T08:42:35.267Z,15.8
2018-04-12T08:43:25.019Z,15.8
2018-04-12T08:44:15.074Z,15.8
2018-04-12T08:45:05.176Z,15.8
2018-04-12T08:45:55.359Z,15.8
2018-04-12T08:46:44.963Z,15.8
2018-04-12T08:47:34.781Z,15.8
2018-04-12T08:48:25.966Z,15.8
2018-04-12T08:49:15.772Z,15.8
2018-04-12T08:50:06.101Z,15.8
2018-04-12T08:50:55.861Z,15.8
2018-04-12T08:51:45.365Z,15.8
2018-04-12T08:52:35.840Z,15.8
2018-04-12T08:53:25.025Z,15.8
2018-04-12T08:54:16.101Z,15.8
2018-04-12T08:55:06.460Z,15.8
2018-04-12T08:55:57.063Z,15.8
2018-04-12T08:56:46.054Z,15.8
2018-04-12T08:57:35.849Z,15.8
2018-04-12T08:58:26.678Z,15.8
2018-04-12T08:59:16.224Z,15.8
2018-04-12T09:00:06.122Z,15.8
2018-04-12T09:00:56.649Z,15.8
2018-04-12T09:01:45.850Z,15.8
2018-04-12T09:02:36.526Z,15.8
2018-04-12T09:03:26.824Z,15.8
2018-04-12T09:04:16.362Z,15.8
2018-04-12T09:05:07.568Z,15.8
2018-04-12T09:05:56.860Z,15.8
2018-04-12T09:06:47.544Z,15.8
2018-04-12T09:07:37.485Z,15.8
2018-04-12T09:08:27.265Z,15.8
2018-04-12T09:09:17.281Z,15.8
2018-04-12T09:10:07.097Z,15.8
2018-04-12T09:10:56.574Z,15.8
2018-04-12T09:11:47.771Z,15.8
2018-04-12T09:12:37.583Z,15.8
2018-04-12T09:13:27.628Z,15.8
2018-04-12T09:14:18.259Z,15.8
2018-04-12T09:15:07.768Z,15.8
2018-04-12T09:15:57.870Z,15.8
2018-04-12T09:16:47.617Z,15.8
2018-04-12T09:17:38.229Z,15.8
2018-04-12T09:18:28.589Z,15.8
2018-04-12T09:19:17.911Z,15.8
2018-04-12T09:20:07.603Z,15.8
2018-04-12T09:20:58.513Z,15.8
2018-04-12T09:21:47.692Z,15.8
2018-04-12T09:22:38.597Z,15.8
2018-04-12T09:23:28.606Z,15.8
2018-04-12T09:24:18.751Z,15.8
2018-04-12T09:25:08.249Z,15.8
2018-04-12T09:25:58.361Z,15.8
2018-04-12T09:26:48.321Z,15.8
2018-04-12T09:27:38.424Z,15.8
2018-04-12T09:28:29.060Z,15.8
2018-04-12T09:29:18.887Z,15.8
2018-04-12T09:30:08.897Z,15.8
2018-04-12T09:30:58.949Z,15.8
2018-04-12T09:31:48.504Z,15.8
2018-04-12T09:32:39.061Z,15.8
2018-04-12T09:33:28.759Z,15.8
2018-04-12T09:34:19.526Z,15.8
2018-04-12T09:35:09.284Z,15.8
2018-04-12T09:35:58.507Z,15.8
2018-04-12T09:36:49.174Z,15.8
2018-04-12T09:37:39.502Z,15.8
2018-04-12T09:38:29.816Z,15.8
2018-04-12T09:39:18.520Z,15.8
2018-04-12T09:40:08.932Z,15.8
2018-04-12T09:40:59.489Z,15.8
2018-04-12T09:41:49.539Z,15.8
2018-04-12T09:42:38.792Z,15.8
2018-04-12T09:43:30.222Z,15.8
2018-04-12T09:44:20.047Z,15.8
2018-04-12T09:45:10.657Z,15.8
2018-04-12T09:46:00.184Z,15.8
2018-04-12T09:46:50.216Z,15.8
2018-04-12T09:47:40.281Z,15.8
2018-04-12T09:48:29.514Z,15.8
2018-04-12T09:49:20.420Z,15.8
2018-04-12T09:50:10.752Z,15.8
2018-04-12T09:51:00.823Z,15.8
2018-04-12T09:51:50.580Z,15.8
2018-04-12T09:52:40.384Z,15.8
2018-04-12T09:53:31.013Z,15.8
2018-04-12T09:54:20.791Z,15.8
2018-04-12T09:55:10.871Z,15.8
2018-04-12T09:56:01.180Z,15.8
2018-04-12T09:56:50.959Z,15.8
2018-04-12T09:57:41.355Z,15.8
2018-04-12T09:58:30.819Z,15.8
2018-04-12T09:59:21.754Z,15.8
2018-04-12T10:00:12.432Z,15.8
2018-04-12T10:01:01.624Z,15.8
2018-04-12T10:01:50.798Z,15.8
2018-04-12T10:02:40.926Z,15.8
2018-04-12T10:03:31.234Z,15.8
2018-04-12T10:04:22.162Z,15.8
2018-04-12T10:05:11.122Z,15.8
2018-04-12T10:06:01.130Z,15.8
2018-04-12T10:06:52.350Z,15.9
2018-04-12T10:07:41.594Z,15.9
2018-04-12T10:08:31.976Z,15.8
2018-04-12T10:09:21.398Z,15.8
2018-04-12T10:10:12.298Z,15.8
2018-04-12T10:11:02.119Z,15.8
2018-04-12T10:11:51.599Z,15.8
2018-04-12T10:12:41.689Z,15.8
2018-04-12T10:13:32.916Z,15.8
2018-04-12T10:14:21.638Z,15.9
2018-04-12T10:15:12.928Z,15.9
2018-04-12T10:16:02.480Z,15.8
2018-04-12T10:16:52.533Z,15.9
2018-04-12T10:17:42.611Z,15.9
2018-04-12T10:18:32.720Z,15.9
2018-04-12T10:19:23.013Z,15.9
2018-04-12T10:20:13.052Z,15.9
2018-04-12T10:21:02.910Z,15.9
2018-04-12T10:21:53.230Z,15.8
2018-04-12T10:22:43.290Z,15.9
2018-04-12T10:23:32.868Z,15.9
2018-04-12T10:24:23.446Z,15.8
2018-04-12T10:25:13.172Z,15.9
2018-04-12T10:26:03.547Z,15.9
2018-04-12T10:26:53.299Z,15.9
2018-04-12T10:27:42.853Z,15.9
2018-04-12T10:28:33.247Z,15.9
2018-04-12T10:29:24.077Z,15.8
2018-04-12T10:30:13.306Z,15.9
2018-04-12T10:31:03.655Z,15.9
2018-04-12T10:31:53.444Z,15.9
2018-04-12T10:32:43.816Z,15.9
2018-04-12T10:33:33.580Z,15.9
2018-04-12T10:34:23.347Z,15.9
2018-04-12T10:35:14.037Z,15.9
2018-04-12T10:36:03.767Z,15.9
2018-04-12T10:36:53.802Z,15.9
2018-04-12T10:37:43.617Z,15.9
2018-04-12T10:38:34.545Z,15.9
2018-04-12T10:39:24.467Z,15.9
2018-04-12T10:40:14.069Z,15.9
2018-04-12T10:41:04.192Z,15.9
2018-04-12T10:41:54.981Z,15.9
2018-04-12T10:42:43.417Z,15.9
2018-04-12T10:43:34.382Z,15.9
2018-04-12T10:44:25.629Z,15.9
2018-04-12T10:45:15.331Z,15.9
2018-04-12T10:46:04.817Z,15.9
2018-04-12T10:46:54.684Z,15.9
2018-04-12T10:47:44.706Z,15.9
2018-04-12T10:48:34.986Z,15.9
2018-04-12T10:49:25.109Z,15.9
2018-04-12T10:50:14.599Z,15.9
2018-04-12T10:51:05.508Z,15.9
2018-04-12T10:51:55.477Z,15.9
2018-04-12T10:52:45.098Z,15.9
2018-04-12T10:53:35.680Z,15.9
2018-04-12T10:54:25.781Z,15.9
2018-04-12T10:55:15.269Z,15.9
2018-04-12T10:56:05.326Z,15.9
2018-04-12T10:56:55.379Z,15.9
2018-04-12T10:57:46.372Z,15.9
2018-04-12T10:58:36.103Z,15.9
2018-04-12T10:59:25.758Z,15.9
2018-04-12T11:00:16.541Z,15.9
2018-04-12T11:01:06.259Z,15.9
2018-04-12T11:01:56.092Z,15.9
2018-04-12T11:02:46.402Z,15.9
2018-04-12T11:03:36.495Z,15.9
2018-04-12T11:04:25.977Z,15.9
2018-04-12T11:05:15.507Z,15.9
2018-04-12T11:06:05.281Z,15.9
2018-04-12T11:06:56.155Z,15.9
2018-04-12T11:07:46.004Z,15.9
2018-04-12T11:08:36.060Z,15.9
2018-04-12T11:09:25.493Z,15.9
2018-04-12T11:10:16.159Z,15.9
2018-04-12T11:11:06.807Z,15.9
2018-04-12T11:11:57.165Z,15.9
2018-04-12T11:12:46.094Z,15.9
2018-04-12T11:13:37.022Z,15.9
2018-04-12T11:14:26.474Z,15.9
2018-04-12T11:15:16.559Z,15.9
2018-04-12T11:16:07.220Z,15.9
2018-04-12T11:16:57.013Z,15.9
2018-04-12T11:17:47.579Z,15.9
2018-04-12T11:18:38.957Z,15.9
2018-04-12T11:19:27.426Z,15.9
2018-04-12T11:20:17.751Z,15.9
2018-04-12T11:21:07.881Z,15.9
2018-04-12T11:21:57.658Z,15.9
2018-04-12T11:22:47.968Z,15.9
2018-04-12T11:23:37.614Z,15.9
2018-04-12T11:24:28.498Z,15.9
2018-04-12T11:25:18.649Z,15.9
2018-04-12T11:26:07.968Z,15.9
2018-04-12T11:26:57.268Z,15.9
2018-04-12T11:27:48.670Z,15.9
2018-04-12T11:28:37.955Z,15.9
2018-04-12T11:29:28.858Z,15.9
2018-04-12T11:30:18.640Z,15.9
2018-04-12T11:31:08.357Z,15.9
2018-04-12T11:31:58.950Z,15.9
2018-04-12T11:32:48.222Z,15.9
2018-04-12T11:33:37.660Z,15.9
2018-04-12T11:34:28.876Z,15.9
2018-04-12T11:35:18.728Z,15.9
2018-04-12T11:36:08.741Z,15.9
2018-04-12T11:36:58.285Z,15.9
2018-04-12T11:37:48.855Z,15.9
2018-04-12T11:38:39.206Z,15.9
2018-04-12T11:39:28.894Z,15.9
2018-04-12T11:40:18.738Z,15.9
2018-04-12T11:41:09.429Z,15.9
2018-04-12T11:41:58.345Z,15.9
2018-04-12T11:42:49.729Z,15.9
2018-04-12T11:43:39.310Z,15.9
2018-04-12T11:44:29.653Z,15.9
2018-04-12T11:45:19.746Z,15.9
2018-04-12T11:46:09.042Z,15.9
2018-04-12T11:46:59.647Z,15.9
2018-04-12T11:47:49.881Z,15.9
2018-04-12T11:48:38.669Z,15.9
2018-04-12T11:49:29.519Z,15.9
2018-04-12T11:50:19.831Z,15.9
2018-04-12T11:51:10.162Z,15.9
2018-04-12T11:52:00.240Z,15.9
2018-04-12T11:52:49.773Z,15.9
2018-04-12T11:53:39.561Z,15.9
2018-04-12T11:54:29.608Z,15.9
2018-04-12T11:55:20.054Z,15.9
2018-04-12T11:56:09.441Z,15.9
2018-04-12T11:56:59.415Z,15.9
2018-04-12T11:57:49.619Z,16
2018-04-12T11:58:40.321Z,15.9
2018-04-12T11:59:28.839Z,15.9
2018-04-12T12:00:20.381Z,16
2018-04-12T12:01:09.268Z,15.9
2018-04-12T12:01:59.538Z,15.9
2018-04-12T12:02:48.739Z,16
2018-04-12T12:03:41.283Z,16
2018-04-12T12:04:29.626Z,15.9
2018-04-12T12:05:19.241Z,16
2018-04-12T12:06:11.358Z,15.9
2018-04-12T12:07:01.765Z,16
2018-04-12T12:07:49.875Z,15.9
2018-04-12T12:08:41.305Z,16
2018-04-12T12:09:30.865Z,16
2018-04-12T12:10:21.108Z,16
2018-04-12T12:11:11.215Z,16
2018-04-12T12:12:01.251Z,16
2018-04-12T12:12:52.177Z,16
2018-04-12T12:13:41.392Z,16
2018-04-12T12:14:32.052Z,15.9
2018-04-12T12:15:21.517Z,16
2018-04-12T12:16:11.295Z,15.9
2018-04-12T12:17:02.175Z,16
2018-04-12T12:17:52.174Z,16
2018-04-12T12:18:41.759Z,16
2018-04-12T12:19:31.856Z,16
2018-04-12T12:20:22.453Z,16
2018-04-12T12:21:12.247Z,16
2018-04-12T12:22:02.602Z,16
2018-04-12T12:22:52.377Z,16
2018-04-12T12:23:43.331Z,16
2018-04-12T12:24:32.218Z,16
2018-04-12T12:25:22.525Z,16
2018-04-12T12:26:13.170Z,16
2018-04-12T12:27:02.950Z,16
2018-04-12T12:27:52.718Z,16
2018-04-12T12:28:42.583Z,16
2018-04-12T12:29:33.448Z,16
2018-04-12T12:30:22.412Z,16
2018-04-12T12:31:12.727Z,16
2018-04-12T12:32:03.372Z,16
2018-04-12T12:32:53.192Z,16
2018-04-12T12:33:43.497Z,16
2018-04-12T12:34:33.269Z,16
2018-04-12T12:35:23.620Z,16
2018-04-12T12:36:13.416Z,16
2018-04-12T12:37:03.504Z,16
2018-04-12T12:37:53.291Z,16
2018-04-12T12:38:43.144Z,16
2018-04-12T12:39:33.695Z,16
2018-04-12T12:40:23.181Z,16
2018-04-12T12:41:12.963Z,16.1
2018-04-12T12:42:03.368Z,16
2018-04-12T12:42:54.204Z,16
2018-04-12T12:43:44.615Z,16
2018-04-12T12:44:34.142Z,16
2018-04-12T12:45:24.136Z,16
2018-04-12T12:46:14.581Z,16
2018-04-12T12:47:04.523Z,16
2018-04-12T12:47:54.014Z,16.1
2018-04-12T12:48:43.546Z,16
2018-04-12T12:49:35.003Z,16.1
2018-04-12T12:50:24.810Z,16
2018-04-12T12:51:14.846Z,16
2018-04-12T12:52:05.226Z,16.1
2018-04-12T12:52:54.407Z,16
2018-04-12T12:53:43.921Z,16
2018-04-12T12:54:34.845Z,16
2018-04-12T12:55:24.075Z,16.1
2018-04-12T12:56:15.586Z,16.1
2018-04-12T12:57:04.447Z,16.1
2018-04-12T12:57:54.808Z,16.1
2018-04-12T12:58:45.701Z,16.1
2018-04-12T12:59:35.256Z,16.1
2018-04-12T13:00:25.566Z,16.1
2018-04-12T13:01:15.437Z,16.1
2018-04-12T13:02:05.411Z,16.1
2018-04-12T13:02:56.041Z,16.1
2018-04-12T13:03:45.844Z,16.1
2018-04-12T13:04:35.314Z,16.1
2018-04-12T13:05:25.706Z,16.1
2018-04-12T13:06:15.807Z,16.1
2018-04-12T13:07:05.829Z,16.1
2018-04-12T13:07:55.871Z,16.1
2018-04-12T13:08:45.909Z,16.1
2018-04-12T13:09:35.450Z,16.1
2018-04-12T13:10:25.793Z,16.1
2018-04-12T13:11:15.882Z,16.1
2018-04-12T13:12:05.949Z,16.1
2018-04-12T13:12:55.451Z,16.1
2018-04-12T13:13:46.375Z,16.1
2018-04-12T13:14:36.424Z,16.1
2018-04-12T13:15:26.758Z,16.1
2018-04-12T13:16:17.106Z,16.1
2018-04-12T13:17:06.028Z,16.1
2018-04-12T13:17:57.233Z,16.1
2018-04-12T13:18:47.023Z,16.1
2018-04-12T13:19:35.957Z,16.1
2018-04-12T13:20:26.584Z,16.1
2018-04-12T13:21:17.247Z,16.1
2018-04-12T13:22:06.747Z,16.1
2018-04-12T13:22:57.157Z,16.1
2018-04-12T13:23:46.822Z,16.1
2018-04-12T13:24:36.067Z,16.1
2018-04-12T13:25:26.934Z,16.1
2018-04-12T13:26:17.840Z,16.1
2018-04-12T13:27:07.311Z,16.1
2018-04-12T13:27:57.172Z,16.1
2018-04-12T13:28:47.503Z,16.1
2018-04-12T13:29:37.897Z,16.1
2018-04-12T13:30:27.628Z,16.1
2018-04-12T13:31:18.234Z,16.1
2018-04-12T13:32:06.846Z,16.1
2018-04-12T13:32:57.834Z,16.1
2018-04-12T13:33:47.588Z,16.1
2018-04-12T13:34:37.608Z,16.1
2018-04-12T13:35:28.303Z,16.1
2018-04-12T13:36:18.176Z,16.1
2018-04-12T13:37:08.417Z,16.1
2018-04-12T13:37:57.122Z,16.1
2018-04-12T13:38:48.010Z,16.1
2018-04-12T13:39:38.369Z,16.1
2018-04-12T13:40:27.829Z,16.1
2018-04-12T13:41:18.179Z,16.1
2018-04-12T13:42:08.524Z,16.1
2018-04-12T13:42:58.602Z,16.1
2018-04-12T13:43:48.955Z,16.1
2018-04-12T13:44:38.762Z,16.1
2018-04-12T13:45:28.006Z,16.1
2018-04-12T13:46:19.454Z,16.1
2018-04-12T13:47:08.946Z,16.1
2018-04-12T13:47:57.917Z,16.1
2018-04-12T13:48:48.757Z,16.1
2018-04-12T13:49:39.665Z,16.1
2018-04-12T13:50:29.456Z,16.1
2018-04-12T13:51:18.012Z,16.1
2018-04-12T13:52:08.216Z,16.1
2018-04-12T13:52:58.379Z,16.1
2018-04-12T13:53:49.058Z,16.1
2018-04-12T13:54:38.378Z,16.1
2018-04-12T13:55:28.337Z,16.1
2018-04-12T13:56:18.560Z,16.1
2018-04-12T13:57:08.667Z,16.1
2018-04-12T13:57:59.162Z,16.1
2018-04-12T13:58:48.107Z,16.1
2018-04-12T13:59:39.156Z,16.1
2018-04-12T14:00:29.681Z,16.1
2018-04-12T14:01:19.264Z,16.1
2018-04-12T14:02:08.142Z,16.1
2018-04-12T14:02:58.758Z,16.1
2018-04-12T14:03:50.744Z,16.1
2018-04-12T14:04:40.611Z,16.1
2018-04-12T14:05:30.146Z,16.1
2018-04-12T14:06:20.352Z,16.1
2018-04-12T14:07:11.024Z,16.1
2018-04-12T14:08:00.276Z,16.2
2018-04-12T14:08:50.636Z,16.2
2018-04-12T14:09:40.371Z,16.1
2018-04-12T14:10:30.968Z,16.1
2018-04-12T14:11:20.486Z,16.2
2018-04-12T14:12:11.150Z,16.1
2018-04-12T14:13:00.339Z,16.1
2018-04-12T14:13:51.287Z,16.2
2018-04-12T14:14:40.723Z,16.2
2018-04-12T14:15:31.391Z,16.2
2018-04-12T14:16:21.434Z,16.1
2018-04-12T14:17:10.505Z,16.2
2018-04-12T14:18:01.351Z,16.2
2018-04-12T14:18:51.983Z,16.2
2018-04-12T14:19:41.727Z,16.2
2018-04-12T14:20:31.523Z,16.2
2018-04-12T14:21:21.313Z,16.2
2018-04-12T14:22:11.315Z,16.2
2018-04-12T14:23:01.388Z,16.2
2018-04-12T14:23:52.277Z,16.2
2018-04-12T14:24:41.786Z,16.2
2018-04-12T14:25:31.976Z,16.2
2018-04-12T14:26:21.666Z,16.2
2018-04-12T14:27:12.094Z,16.2
2018-04-12T14:28:02.052Z,16.2
2018-04-12T14:28:51.261Z,16.2
2018-04-12T14:29:42.618Z,16.2
2018-04-12T14:30:32.816Z,16.2
2018-04-12T14:31:22.920Z,16.2
2018-04-12T14:32:11.806Z,16.2
2018-04-12T14:33:02.990Z,16.2
2018-04-12T14:33:52.512Z,16.2
2018-04-12T14:34:43.129Z,16.2
2018-04-12T14:35:32.945Z,16.2
2018-04-12T14:36:24.091Z,16.2
2018-04-12T14:37:13.040Z,16.2
2018-04-12T14:38:01.998Z,16.2
2018-04-12T14:38:52.610Z,16.2
2018-04-12T14:39:42.686Z,16.2
2018-04-12T14:40:32.747Z,16.2
2018-04-12T14:41:23.107Z,16.2
2018-04-12T14:42:13.172Z,16.2
2018-04-12T14:43:02.365Z,16.2
2018-04-12T14:43:52.665Z,16.3
2018-04-12T14:44:42.531Z,16.2
2018-04-12T14:45:32.849Z,16.2
2018-04-12T14:46:23.287Z,16.2
2018-04-12T14:47:14.118Z,16.2
2018-04-12T14:48:03.028Z,16.2
2018-04-12T14:48:52.811Z,16.2
2018-04-12T14:49:44.287Z,16.3
2018-04-12T14:50:34.073Z,16.2
2018-04-12T14:51:23.857Z,16.2
2018-04-12T14:52:13.962Z,16.3
2018-04-12T14:53:04.239Z,16.2
2018-04-12T14:53:53.460Z,16.2
2018-04-12T14:54:43.836Z,16.2
2018-04-12T14:55:33.882Z,16.3
2018-04-12T14:56:23.746Z,16.3
2018-04-12T14:57:14.384Z,16.2
2018-04-12T14:58:03.792Z,16.3
2018-04-12T14:58:53.904Z,16.2
2018-04-12T14:59:43.949Z,16.3
2018-04-12T15:00:35.108Z,16.3
2018-04-12T15:01:24.577Z,16.3
2018-04-12T15:02:14.959Z,16.3
2018-04-12T15:03:04.447Z,16.3
2018-04-12T15:03:54.295Z,16.3
2018-04-12T15:04:44.448Z,16.2
2018-04-12T15:05:34.927Z,16.3
2018-04-12T15:06:25.704Z,16.3
2018-04-12T15:07:14.777Z,16.3
2018-04-12T15:08:05.730Z,16.2
2018-04-12T15:08:54.927Z,16.3
2018-04-12T15:09:44.732Z,16.3
2018-04-12T15:10:35.615Z,16.3
2018-04-12T15:11:24.875Z,16.3
2018-04-12T15:12:14.683Z,16.3
2018-04-12T15:13:06.371Z,16.3
2018-04-12T15:13:55.615Z,16.2
2018-04-12T15:14:44.783Z,16.3
2018-04-12T15:15:34.855Z,16.3
2018-04-12T15:16:25.053Z,16.3
2018-04-12T15:17:15.564Z,16.3
2018-04-12T15:18:05.084Z,16.3
2018-04-12T15:18:55.837Z,16.3
2018-04-12T15:19:45.987Z,16.3
2018-04-12T15:20:35.839Z,16.3
2018-04-12T15:21:25.902Z,16.3
2018-04-12T15:22:15.571Z,16.3
2018-04-12T15:23:06.906Z,16.3
2018-04-12T15:23:55.791Z,16.3
2018-04-12T15:24:46.456Z,16.3
2018-04-12T15:25:36.509Z,16.3
2018-04-12T15:26:26.808Z,16.3
2018-04-12T15:27:16.131Z,16.3
2018-04-12T15:28:06.696Z,16.3
2018-04-12T15:28:56.219Z,16.3
2018-04-12T15:29:46.213Z,16.3
2018-04-12T15:30:36.560Z,16.3
2018-04-12T15:31:26.063Z,16.3
2018-04-12T15:32:17.856Z,16.3
2018-04-12T15:33:07.631Z,16.3
2018-04-12T15:33:57.418Z,16.3
2018-04-12T15:34:47.180Z,16.3
2018-04-12T15:35:36.913Z,16.3
2018-04-12T15:36:26.433Z,16.3
2018-04-12T15:37:16.860Z,16.3
2018-04-12T15:38:07.138Z,16.3
2018-04-12T15:38:57.858Z,16.3
2018-04-12T15:39:47.371Z,16.3
2018-04-12T15:40:38.171Z,16.3
2018-04-12T15:41:28.221Z,16.3
2018-04-12T15:42:17.442Z,16.3
2018-04-12T15:43:07.810Z,16.3
2018-04-12T15:43:57.887Z,16.3
2018-04-12T15:44:47.367Z,16.3
2018-04-12T15:45:38.797Z,16.3
2018-04-12T15:46:27.750Z,16.3
2018-04-12T15:47:18.107Z,16.3
2018-04-12T15:48:08.458Z,16.3
2018-04-12T15:48:58.193Z,16.3
2018-04-12T15:49:48.835Z,16.3
2018-04-12T15:50:38.393Z,16.3
2018-04-12T15:51:27.879Z,16.3
2018-04-12T15:52:18.209Z,16.3
2018-04-12T15:53:07.520Z,16.3
2018-04-12T15:53:58.674Z,16.3
2018-04-12T15:54:48.671Z,16.3
2018-04-12T15:55:38.318Z,16.3
2018-04-12T15:56:28.532Z,16.3
2018-04-12T15:57:18.609Z,16.3
2018-04-12T15:58:08.987Z,16.3
2018-04-12T15:58:57.884Z,16.3
2018-04-12T15:59:49.328Z,16.3
2018-04-12T16:00:38.961Z,16.3
2018-04-12T16:01:29.127Z,16.3
2018-04-12T16:02:19.259Z,16.3
2018-04-12T16:03:09.673Z,16.3
2018-04-12T16:03:59.359Z,16.3
2018-04-12T16:04:49.396Z,16.3
2018-04-12T16:05:39.818Z,16.3
2018-04-12T16:06:29.876Z,16.3
2018-04-12T16:07:19.695Z,16.3
2018-04-12T16:08:08.952Z,16.3
2018-04-12T16:09:00.026Z,16.3
2018-04-12T16:09:49.815Z,16.3
2018-04-12T16:10:39.616Z,16.3
2018-04-12T16:11:30.511Z,16.3
2018-04-12T16:12:20.031Z,16.3
2018-04-12T16:13:10.640Z,16.3
2018-04-12T16:14:00.593Z,16.3
2018-04-12T16:14:50.486Z,16.3
2018-04-12T16:15:40.003Z,16.3
2018-04-12T16:16:30.335Z,16.3
2018-04-12T16:17:20.137Z,16.3
2018-04-12T16:18:10.480Z,16.3
2018-04-12T16:19:00.804Z,16.3
2018-04-12T16:19:50.923Z,16.3
2018-04-12T16:20:40.384Z,16.3
2018-04-12T16:21:30.780Z,16.3
2018-04-12T16:22:20.495Z,16.3
2018-04-12T16:23:10.872Z,16.3
2018-04-12T16:24:01.048Z,16.3
2018-04-12T16:24:50.971Z,16.3
2018-04-12T16:25:41.608Z,16.3
2018-04-12T16:26:30.847Z,16.3
2018-04-12T16:27:20.636Z,16.3
2018-04-12T16:28:11.250Z,16.3
2018-04-12T16:29:00.760Z,16.3
2018-04-12T16:29:51.660Z,16.3
2018-04-12T16:30:41.156Z,16.3
2018-04-12T16:31:31.227Z,16.3
2018-04-12T16:32:21.290Z,16.3
2018-04-12T16:33:12.177Z,16.3
2018-04-12T16:34:01.676Z,16.3
2018-04-12T16:34:52.045Z,16.3
2018-04-12T16:35:42.142Z,16.3
2018-04-12T16:36:31.930Z,16.3
2018-04-12T16:37:21.907Z,16.3
2018-04-12T16:38:11.693Z,16.3
2018-04-12T16:39:02.620Z,16.3
2018-04-12T16:39:52.651Z,16.4
2018-04-12T16:40:41.924Z,16.4
2018-04-12T16:41:31.758Z,16.3
2018-04-12T16:42:22.008Z,16.3
2018-04-12T16:43:12.354Z,16.4
2018-04-12T16:44:02.787Z,16.4
2018-04-12T16:44:52.482Z,16.3
2018-04-12T16:45:42.595Z,16.4
2018-04-12T16:46:32.889Z,16.4
2018-04-12T16:47:21.555Z,16.4
2018-04-12T16:48:12.514Z,16.4
2018-04-12T16:49:02.820Z,16.4